aviador You're here:

SCQP Decoded Metar

in
Report Time2018-02-20 03:00:00
UTC Time2018-02-20 03:38:13
Flight Rules mvfr MVFR
Wind280° at 04 kt
W.Rank280° ranks 11
Current wind is below 280° avg. (5.8)
Visibility9999 m
Phenomena:Light Shower Rain
Clouds:Overcast 027 Hf
Ceiling2,700 ft
Temp12°C
Dew Point12°C (100% RH)
AAT11.2°C
QNH1014 hPa
Raw Report
METAR SCQP 200300Z 28004KT 250V310 9999 -SHRA OVC027 12/12 Q1014=

Extra information for SCQP:More info

Social comments